Time;durP1;ratioP1;P1;durP2;ratioP2;P2;SDS_P1;SDS_P2;PMS_P1;PMS_P2;Temp;Humidity;BMP_temperature;BMP_pressure;BME280_temperature;BME280_humidity;BME280_pressure;Samples;Min_cycle;Max_cycle;Signal;HPM_P1;HPM_P2
2023/06/27 00:01:44;;;;;;;7.60;6.10;;;;;;;;;;109785;275;38773;-43
2023/06/27 00:04:23;;;;;;;7.80;6.60;;;;;;;;;;109814;271;39457;-41
2023/06/27 00:06:56;;;;;;;8.00;6.40;;;;;;;;;;109806;275;43324;-44
2023/06/27 00:09:30;;;;;;;8.50;6.70;;;;;;;;;;109786;268;42144;-44
2023/06/27 00:12:05;;;;;;;7.80;6.40;;;;;;;;;;109728;271;39924;-42
2023/06/27 00:14:38;;;;;;;7.60;6.40;;;;;;;;;;109742;271;39671;-43
2023/06/27 00:17:16;;;;;;;7.60;6.20;;;;;;;;;;109778;275;42587;-43
2023/06/27 00:19:49;;;;;;;8.20;6.50;;;;;;;;;;109790;276;42312;-42
2023/06/27 00:22:29;;;;;;;8.20;6.60;;;;;;;;;;109795;275;40072;-41
2023/06/27 00:25:03;;;;;;;7.40;6.30;;;;;;;;;;109786;275;39836;-41
2023/06/27 00:27:37;;;;;;;8.00;6.70;;;;;;;;;;109784;277;42930;-41
2023/06/27 00:30:15;;;;;;;8.30;6.40;;;;;;;;;;109804;271;42374;-41
2023/06/27 00:32:48;;;;;;;7.60;6.30;;;;;;;;;;109758;275;38734;-40
2023/06/27 00:35:22;;;;;;;7.70;6.50;;;;;;;;;;109772;275;40658;-41
2023/06/27 00:37:55;;;;;;;8.30;6.70;;;;;;;;;;109773;275;43279;-41
2023/06/27 00:40:33;;;;;;;7.60;6.80;;;;;;;;;;109804;275;42043;-41
2023/06/27 00:43:14;;;;;;;8.60;6.30;;;;;;;;;;109781;275;38792;-43
2023/06/27 00:45:48;;;;;;;7.30;6.30;;;;;;;;;;109780;275;39594;-40
2023/06/27 00:48:23;;;;;;;7.70;6.70;;;;;;;;;;109801;271;42871;-41
2023/06/27 00:51:05;;;;;;;7.90;6.60;;;;;;;;;;109788;275;41871;-41
2023/06/27 00:53:40;;;;;;;7.60;6.30;;;;;;;;;;109776;271;38681;-41
2023/06/27 00:56:14;;;;;;;7.30;6.50;;;;;;;;;;109798;271;40865;-41
2023/06/27 00:58:48;;;;;;;7.30;6.30;;;;;;;;;;109762;275;42918;-41
2023/06/27 01:01:23;;;;;;;7.50;6.30;;;;;;;;;;109773;268;42119;-41
2023/06/27 01:03:57;;;;;;;7.70;6.40;;;;;;;;;;109773;275;38813;-41
2023/06/27 01:06:39;;;;;;;7.30;6.20;;;;;;;;;;109779;271;39827;-42
2023/06/27 01:09:27;;;;;;;7.20;6.00;;;;;;;;;;105106;275;3010991;-41
2023/06/27 01:12:10;;;;;;;7.40;6.20;;;;;;;;;;109789;275;42113;-41
2023/06/27 01:14:46;;;;;;;7.70;6.30;;;;;;;;;;109766;275;38511;-41
2023/06/27 01:17:21;;;;;;;7.10;6.00;;;;;;;;;;109763;275;39685;-41
2023/06/27 01:19:56;;;;;;;7.30;6.10;;;;;;;;;;109782;272;42981;-43
2023/06/27 01:22:36;;;;;;;7.30;6.00;;;;;;;;;;109776;275;42127;-42
2023/06/27 01:25:14;;;;;;;7.30;5.70;;;;;;;;;;109761;275;38680;-41
2023/06/27 01:27:48;;;;;;;7.10;5.70;;;;;;;;;;109800;275;39688;-41
2023/06/27 01:30:24;;;;;;;7.00;5.80;;;;;;;;;;109774;275;43987;-41
2023/06/27 01:33:05;;;;;;;7.00;5.40;;;;;;;;;;109796;268;42211;-42
2023/06/27 01:35:50;;;;;;;7.90;5.70;;;;;;;;;;109763;267;38793;-42
2023/06/27 01:38:28;;;;;;;7.30;5.70;;;;;;;;;;109758;275;39622;-41
2023/06/27 01:41:05;;;;;;;7.50;5.50;;;;;;;;;;109774;268;42624;-42
2023/06/27 01:43:39;;;;;;;6.80;5.30;;;;;;;;;;109784;275;42075;-41
2023/06/27 01:46:15;;;;;;;6.60;5.50;;;;;;;;;;109762;275;38800;-42
2023/06/27 01:48:52;;;;;;;6.80;5.30;;;;;;;;;;109791;275;39976;-41
2023/06/27 01:51:27;;;;;;;7.00;5.50;;;;;;;;;;109796;275;43928;-41
2023/06/27 01:54:04;;;;;;;6.90;5.50;;;;;;;;;;109801;271;42106;-42
2023/06/27 01:56:39;;;;;;;7.10;5.30;;;;;;;;;;109774;275;38791;-43
2023/06/27 01:59:13;;;;;;;6.30;5.10;;;;;;;;;;109769;271;39707;-41
2023/06/27 02:01:47;;;;;;;6.70;4.90;;;;;;;;;;109780;275;42619;-41
2023/06/27 02:04:20;;;;;;;6.70;5.10;;;;;;;;;;109802;272;42214;-45
2023/06/27 02:06:54;;;;;;;6.20;4.80;;;;;;;;;;109782;275;47283;-43
2023/06/27 02:09:28;;;;;;;6.60;4.80;;;;;;;;;;109779;275;39741;-43
2023/06/27 02:12:04;;;;;;;6.50;5.20;;;;;;;;;;109775;275;42856;-42
2023/06/27 02:14:38;;;;;;;7.10;5.00;;;;;;;;;;109780;275;42137;-43
2023/06/27 02:17:12;;;;;;;6.50;4.80;;;;;;;;;;109806;271;46030;-44
2023/06/27 02:19:46;;;;;;;6.50;5.00;;;;;;;;;;109807;275;39435;-42
2023/06/27 02:22:20;;;;;;;6.30;4.80;;;;;;;;;;109814;275;43895;-43
2023/06/27 02:24:55;;;;;;;6.60;5.00;;;;;;;;;;109789;275;42132;-43
2023/06/27 02:27:29;;;;;;;6.30;4.60;;;;;;;;;;109765;275;45866;-41
2023/06/27 02:30:03;;;;;;;6.50;4.90;;;;;;;;;;109775;271;40737;-42
2023/06/27 02:32:37;;;;;;;6.50;4.60;;;;;;;;;;109801;271;42914;-42
2023/06/27 02:35:15;;;;;;;6.50;4.90;;;;;;;;;;109774;275;42648;-42
2023/06/27 02:37:49;;;;;;;6.30;4.70;;;;;;;;;;109798;271;47323;-42
2023/06/27 02:40:25;;;;;;;6.50;4.90;;;;;;;;;;109796;275;39670;-42
2023/06/27 02:42:59;;;;;;;6.20;4.90;;;;;;;;;;109770;275;43925;-42
2023/06/27 02:45:33;;;;;;;6.70;4.90;;;;;;;;;;109779;275;42547;-42
2023/06/27 02:48:07;;;;;;;6.90;4.80;;;;;;;;;;109798;275;44482;-41
2023/06/27 02:50:45;;;;;;;5.80;4.70;;;;;;;;;;109800;275;40208;-42
2023/06/27 02:53:19;;;;;;;6.50;4.80;;;;;;;;;;109805;275;42833;-41
2023/06/27 02:55:56;;;;;;;5.80;4.60;;;;;;;;;;109736;275;43416;-42
2023/06/27 02:58:30;;;;;;;6.70;4.80;;;;;;;;;;109769;275;46036;-42
2023/06/27 03:01:06;;;;;;;6.60;4.90;;;;;;;;;;109793;275;39672;-43
2023/06/27 03:03:42;;;;;;;6.20;4.60;;;;;;;;;;109793;275;42988;-42
2023/06/27 03:06:15;;;;;;;6.40;4.50;;;;;;;;;;109766;275;43129;-41
2023/06/27 03:08:49;;;;;;;5.90;4.30;;;;;;;;;;109800;275;44690;-42
2023/06/27 03:11:24;;;;;;;5.60;4.20;;;;;;;;;;109786;271;39683;-42
2023/06/27 03:13:58;;;;;;;6.00;4.80;;;;;;;;;;109769;275;42875;-42
2023/06/27 03:16:33;;;;;;;6.00;4.40;;;;;;;;;;109759;279;43240;-41
2023/06/27 03:19:07;;;;;;;6.20;4.70;;;;;;;;;;109775;275;44524;-41
2023/06/27 03:21:41;;;;;;;6.20;4.90;;;;;;;;;;109793;271;40682;-41
2023/06/27 03:24:15;;;;;;;5.80;4.60;;;;;;;;;;109799;275;42847;-41
2023/06/27 03:26:48;;;;;;;6.60;4.90;;;;;;;;;;109800;272;42131;-42
2023/06/27 03:29:22;;;;;;;6.40;4.70;;;;;;;;;;109665;275;174872;-41
2023/06/27 03:31:57;;;;;;;6.70;4.60;;;;;;;;;;109701;272;193683;-41
2023/06/27 03:34:32;;;;;;;6.70;4.50;;;;;;;;;;109765;275;42847;-41
2023/06/27 03:37:06;;;;;;;5.90;4.40;;;;;;;;;;109790;272;43297;-41
2023/06/27 03:39:40;;;;;;;6.50;4.80;;;;;;;;;;109800;275;45497;-41
2023/06/27 03:42:15;;;;;;;6.20;4.70;;;;;;;;;;109765;272;40802;-41
2023/06/27 03:44:49;;;;;;;6.10;4.60;;;;;;;;;;109790;275;42824;-41
2023/06/27 03:47:22;;;;;;;6.50;4.70;;;;;;;;;;109755;275;43353;-41
2023/06/27 03:49:56;;;;;;;6.20;4.50;;;;;;;;;;109786;275;46221;-41
2023/06/27 03:52:30;;;;;;;6.20;4.60;;;;;;;;;;109804;275;39689;-41
2023/06/27 03:55:07;;;;;;;6.00;4.50;;;;;;;;;;109793;275;42798;-39
2023/06/27 03:57:40;;;;;;;7.60;4.70;;;;;;;;;;109756;275;42256;-41
2023/06/27 04:00:18;;;;;;;6.40;4.80;;;;;;;;;;109805;275;46104;-42
2023/06/27 04:02:51;;;;;;;5.90;4.70;;;;;;;;;;109757;271;40690;-40
2023/06/27 04:05:27;;;;;;;6.70;4.80;;;;;;;;;;109810;275;42872;-41
2023/06/27 04:08:00;;;;;;;7.20;5.00;;;;;;;;;;109749;275;41884;-42
2023/06/27 04:10:34;;;;;;;6.20;5.00;;;;;;;;;;109795;275;38894;-42
2023/06/27 04:13:10;;;;;;;6.60;5.00;;;;;;;;;;109794;268;40003;-42
2023/06/27 04:15:44;;;;;;;6.30;4.80;;;;;;;;;;109779;275;43905;-41
2023/06/27 04:18:18;;;;;;;6.30;4.90;;;;;;;;;;109799;275;43432;-42
2023/06/27 04:20:53;;;;;;;6.90;4.70;;;;;;;;;;109763;268;38880;-40
2023/06/27 04:23:27;;;;;;;6.30;4.50;;;;;;;;;;109681;275;174842;-41
2023/06/27 04:26:07;;;;;;;6.50;5.00;;;;;;;;;;109772;272;43891;-41
2023/06/27 04:28:41;;;;;;;6.50;4.60;;;;;;;;;;109770;275;42213;-41
2023/06/27 04:31:15;;;;;;;7.20;4.80;;;;;;;;;;109766;275;40468;-41
2023/06/27 04:33:49;;;;;;;6.10;4.60;;;;;;;;;;109809;275;39621;-41
2023/06/27 04:36:25;;;;;;;6.90;4.90;;;;;;;;;;109801;275;43268;-41
2023/06/27 04:39:00;;;;;;;7.20;5.10;;;;;;;;;;109750;271;43359;-41
2023/06/27 04:41:35;;;;;;;6.30;4.80;;;;;;;;;;109790;280;38861;-41
2023/06/27 04:44:09;;;;;;;6.50;4.70;;;;;;;;;;109801;275;39785;-41
2023/06/27 04:46:45;;;;;;;6.40;4.80;;;;;;;;;;109782;275;42852;-41
2023/06/27 04:49:19;;;;;;;6.30;4.60;;;;;;;;;;108350;275;1000841;-42
2023/06/27 04:51:56;;;;;;;6.80;5.20;;;;;;;;;;109766;275;38768;-41
2023/06/27 04:54:30;;;;;;;5.90;4.70;;;;;;;;;;109771;275;39430;-41
2023/06/27 04:57:06;;;;;;;6.20;4.70;;;;;;;;;;109113;268;892700;-41
2023/06/27 04:59:45;;;;;;;6.10;4.90;;;;;;;;;;109764;271;42050;-43
2023/06/27 05:02:19;;;;;;;6.60;5.10;;;;;;;;;;109753;275;38532;-42
2023/06/27 05:04:55;;;;;;;6.00;5.00;;;;;;;;;;109793;276;40718;-42
2023/06/27 05:07:29;;;;;;;6.10;4.60;;;;;;;;;;109753;275;42835;-42
2023/06/27 05:10:05;;;;;;;6.20;4.90;;;;;;;;;;109763;275;42079;-42
2023/06/27 05:12:40;;;;;;;6.40;4.90;;;;;;;;;;109752;268;38938;-41
2023/06/27 05:15:14;;;;;;;6.30;5.20;;;;;;;;;;109784;275;39615;-42
2023/06/27 05:18:16;;;;;;;6.90;4.60;;;;;;;;;;109776;275;42857;-42
2023/06/27 05:20:50;;;;;;;6.60;4.80;;;;;;;;;;109750;268;42099;-42
2023/06/27 05:23:24;;;;;;;8.00;5.20;;;;;;;;;;109777;275;38535;-41
2023/06/27 05:25:58;;;;;;;7.40;5.20;;;;;;;;;;109797;275;40137;-41
2023/06/27 05:28:32;;;;;;;8.20;5.50;;;;;;;;;;109766;275;42855;-41
2023/06/27 05:31:05;;;;;;;8.50;5.60;;;;;;;;;;109769;268;43097;-41
2023/06/27 05:33:39;;;;;;;7.70;5.30;;;;;;;;;;109666;275;191721;-42
2023/06/27 05:36:13;;;;;;;7.80;5.30;;;;;;;;;;109803;275;39432;-41
2023/06/27 05:38:47;;;;;;;8.00;5.30;;;;;;;;;;109798;268;43857;-42
2023/06/27 05:41:21;;;;;;;7.40;5.30;;;;;;;;;;109751;275;42201;-42
2023/06/27 05:43:55;;;;;;;7.10;5.10;;;;;;;;;;109797;268;38771;-41
2023/06/27 05:46:34;;;;;;;7.90;5.60;;;;;;;;;;109787;275;39673;-42
2023/06/27 05:49:08;;;;;;;8.30;5.20;;;;;;;;;;109775;275;42846;-41
2023/06/27 05:51:42;;;;;;;7.30;5.10;;;;;;;;;;109772;275;42105;-41
2023/06/27 05:54:18;;;;;;;6.90;4.80;;;;;;;;;;109659;277;174906;-41
2023/06/27 05:56:52;;;;;;;7.20;4.90;;;;;;;;;;109803;275;39765;-42
2023/06/27 05:59:26;;;;;;;7.00;4.60;;;;;;;;;;109814;275;42835;-42
2023/06/27 06:02:00;;;;;;;6.70;4.30;;;;;;;;;;109787;275;42178;-41
2023/06/27 06:04:34;;;;;;;7.10;4.50;;;;;;;;;;109777;275;38825;-42
2023/06/27 06:07:10;;;;;;;6.00;4.30;;;;;;;;;;109772;271;39702;-41
2023/06/27 06:09:45;;;;;;;6.20;3.80;;;;;;;;;;109811;275;43244;-42
2023/06/27 06:12:19;;;;;;;5.90;3.70;;;;;;;;;;109758;271;43447;-42
2023/06/27 06:14:53;;;;;;;6.30;3.90;;;;;;;;;;109780;275;38748;-41
2023/06/27 06:17:27;;;;;;;6.30;3.80;;;;;;;;;;109770;271;39688;-42
2023/06/27 06:20:01;;;;;;;6.30;3.50;;;;;;;;;;109779;268;42998;-42
2023/06/27 06:22:36;;;;;;;5.50;3.10;;;;;;;;;;109773;275;42205;-41
2023/06/27 06:25:11;;;;;;;6.20;3.20;;;;;;;;;;109787;275;38784;-42
2023/06/27 06:27:45;;;;;;;5.90;3.50;;;;;;;;;;109798;275;40895;-42
2023/06/27 06:30:19;;;;;;;5.50;3.20;;;;;;;;;;109781;275;43984;-41
2023/06/27 06:32:55;;;;;;;5.20;3.50;;;;;;;;;;109771;275;41947;-41
2023/06/27 06:35:29;;;;;;;5.30;3.10;;;;;;;;;;109770;275;38864;-42
2023/06/27 06:38:03;;;;;;;6.00;3.80;;;;;;;;;;109766;275;39415;-42
2023/06/27 06:40:37;;;;;;;5.70;2.90;;;;;;;;;;109783;275;42876;-42
2023/06/27 06:43:11;;;;;;;5.20;2.70;;;;;;;;;;109754;275;42032;-42
2023/06/27 06:45:49;;;;;;;5.30;3.30;;;;;;;;;;109760;277;39936;-41
2023/06/27 06:48:23;;;;;;;5.10;2.60;;;;;;;;;;109766;275;39711;-42
2023/06/27 06:50:57;;;;;;;5.30;2.70;;;;;;;;;;109793;275;42917;-43
2023/06/27 06:53:31;;;;;;;5.20;2.70;;;;;;;;;;109758;275;49164;-42
2023/06/27 06:56:05;;;;;;;4.70;2.70;;;;;;;;;;109801;272;38813;-43
2023/06/27 06:58:39;;;;;;;5.70;3.10;;;;;;;;;;109678;275;39661;-40
2023/06/27 07:01:12;;;;;;;5.10;2.90;;;;;;;;;;109746;276;44005;-40
2023/06/27 07:03:46;;;;;;;6.40;3.20;;;;;;;;;;109088;275;892408;-40
2023/06/27 07:06:19;;;;;;;5.70;2.90;;;;;;;;;;109780;280;38986;-40
2023/06/27 07:08:53;;;;;;;6.80;3.50;;;;;;;;;;109802;275;39687;-42
2023/06/27 07:11:27;;;;;;;5.80;3.60;;;;;;;;;;109783;275;42889;-40
2023/06/27 07:14:01;;;;;;;7.10;3.50;;;;;;;;;;109727;275;49121;-40
2023/06/27 07:16:35;;;;;;;5.10;3.20;;;;;;;;;;109766;271;38926;-43
2023/06/27 07:19:09;;;;;;;6.10;3.40;;;;;;;;;;109805;272;40802;-41
2023/06/27 07:21:43;;;;;;;7.90;4.10;;;;;;;;;;109768;276;42900;-38
2023/06/27 07:24:20;;;;;;;5.90;3.40;;;;;;;;;;109719;276;48787;-39
2023/06/27 07:26:53;;;;;;;6.40;3.70;;;;;;;;;;109780;276;38545;-40
2023/06/27 07:29:27;;;;;;;5.30;3.50;;;;;;;;;;109792;276;39841;-42
2023/06/27 07:32:01;;;;;;;5.40;3.80;;;;;;;;;;109787;276;44007;-40
2023/06/27 07:34:35;;;;;;;6.30;3.40;;;;;;;;;;109757;276;48896;-42
2023/06/27 07:37:10;;;;;;;6.30;3.80;;;;;;;;;;109759;276;38901;-40
2023/06/27 07:39:44;;;;;;;6.70;3.70;;;;;;;;;;109772;276;39815;-40
2023/06/27 07:42:20;;;;;;;5.50;3.50;;;;;;;;;;109783;276;43231;-43
2023/06/27 07:44:54;;;;;;;6.90;4.10;;;;;;;;;;109783;276;47908;-41
2023/06/27 07:47:28;;;;;;;5.70;3.50;;;;;;;;;;109750;276;38810;-40
2023/06/27 07:50:02;;;;;;;6.60;3.80;;;;;;;;;;109793;276;39724;-39
2023/06/27 07:52:36;;;;;;;6.70;3.80;;;;;;;;;;109765;276;43115;-39
2023/06/27 07:55:11;;;;;;;5.50;3.50;;;;;;;;;;109117;275;891017;-39
2023/06/27 07:57:45;;;;;;;7.20;3.90;;;;;;;;;;109784;276;38577;-40
2023/06/27 08:00:22;;;;;;;5.60;3.60;;;;;;;;;;109778;276;39692;-41
2023/06/27 08:02:56;;;;;;;7.10;3.90;;;;;;;;;;109761;272;42597;-42
2023/06/27 08:05:34;;;;;;;5.90;3.80;;;;;;;;;;109767;276;47734;-42
2023/06/27 08:08:10;;;;;;;5.30;3.80;;;;;;;;;;109805;276;39996;-42
2023/06/27 08:10:44;;;;;;;5.90;3.60;;;;;;;;;;109819;271;40834;-40
2023/06/27 08:13:18;;;;;;;6.40;4.10;;;;;;;;;;109773;271;43879;-40
2023/06/27 08:15:51;;;;;;;6.30;3.70;;;;;;;;;;109773;276;41950;-40
2023/06/27 08:18:26;;;;;;;5.60;3.40;;;;;;;;;;109789;276;38720;-40
2023/06/27 08:21:04;;;;;;;5.80;3.50;;;;;;;;;;109766;275;39716;-40
2023/06/27 08:23:37;;;;;;;6.00;3.10;;;;;;;;;;109745;275;43955;-39
2023/06/27 08:26:18;;;;;;;5.60;3.30;;;;;;;;;;109767;275;48531;-40
2023/06/27 08:28:52;;;;;;;6.60;3.50;;;;;;;;;;109795;275;38798;-39
2023/06/27 08:31:32;;;;;;;6.50;3.30;;;;;;;;;;109772;275;39863;-40
2023/06/27 08:34:10;;;;;;;4.90;2.80;;;;;;;;;;109749;273;42864;-39
2023/06/27 08:36:45;;;;;;;5.30;3.10;;;;;;;;;;109780;275;43267;-40
2023/06/27 08:39:19;;;;;;;7.70;3.70;;;;;;;;;;109804;275;38683;-39
2023/06/27 08:41:53;;;;;;;6.60;3.30;;;;;;;;;;109774;275;39650;-40
2023/06/27 08:44:28;;;;;;;6.20;3.10;;;;;;;;;;109774;275;42787;-40
2023/06/27 08:47:06;;;;;;;6.00;2.80;;;;;;;;;;109762;271;43154;-39
2023/06/27 08:49:45;;;;;;;7.10;3.00;;;;;;;;;;109819;275;38786;-40
2023/06/27 08:52:21;;;;;;;6.20;2.90;;;;;;;;;;109780;273;39718;-40
2023/06/27 08:54:57;;;;;;;5.40;2.60;;;;;;;;;;109763;276;43888;-40
2023/06/27 08:57:37;;;;;;;6.50;2.70;;;;;;;;;;109780;267;41888;-42
2023/06/27 09:00:20;;;;;;;5.20;2.40;;;;;;;;;;109775;267;38714;-41
2023/06/27 09:02:55;;;;;;;5.70;2.60;;;;;;;;;;109791;275;39669;-43
2023/06/27 09:05:29;;;;;;;5.70;2.50;;;;;;;;;;109744;275;44085;-40
2023/06/27 09:08:04;;;;;;;4.80;2.10;;;;;;;;;;109783;275;42149;-40
2023/06/27 09:10:41;;;;;;;4.80;2.10;;;;;;;;;;109781;275;38908;-41
2023/06/27 09:13:18;;;;;;;4.60;2.00;;;;;;;;;;109773;275;39696;-41
2023/06/27 09:15:53;;;;;;;5.30;1.80;;;;;;;;;;109760;275;42933;-41
2023/06/27 09:18:36;;;;;;;4.00;2.20;;;;;;;;;;109753;275;42122;-41
2023/06/27 09:21:23;;;;;;;3.90;1.80;;;;;;;;;;109787;275;38532;-38
2023/06/27 09:24:07;;;;;;;4.50;2.10;;;;;;;;;;109776;275;40050;-37
2023/06/27 09:26:42;;;;;;;3.70;1.70;;;;;;;;;;109745;272;42870;-46
2023/06/27 09:29:15;;;;;;;4.50;1.90;;;;;;;;;;109795;275;42197;-39
2023/06/27 09:32:07;;;;;;;4.30;1.80;;;;;;;;;;109767;275;40060;-40
2023/06/27 09:34:44;;;;;;;4.10;1.70;;;;;;;;;;109826;275;40782;-41
2023/06/27 09:37:22;;;;;;;3.70;1.70;;;;;;;;;;109777;275;42852;-40
2023/06/27 09:40:27;;;;;;;3.70;1.70;;;;;;;;;;109595;279;43250;-39
2023/06/27 09:43:05;;;;;;;4.30;1.60;;;;;;;;;;109661;279;38768;-39
2023/06/27 09:45:38;;;;;;;3.20;1.50;;;;;;;;;;109612;280;40882;-40
2023/06/27 09:48:21;;;;;;;3.50;1.60;;;;;;;;;;109604;279;43144;-40
2023/06/27 09:51:04;;;;;;;3.40;1.50;;;;;;;;;;109659;271;41869;-42
2023/06/27 09:53:39;;;;;;;3.60;1.60;;;;;;;;;;109634;280;39892;-40
2023/06/27 09:56:13;;;;;;;3.90;1.50;;;;;;;;;;109604;280;39838;-39
2023/06/27 09:58:47;;;;;;;3.40;1.40;;;;;;;;;;109677;276;43884;-44
2023/06/27 10:01:26;;;;;;;2.80;1.40;;;;;;;;;;109792;276;42519;-41
2023/06/27 10:04:01;;;;;;;3.70;1.50;;;;;;;;;;109780;275;38761;-43
2023/06/27 10:06:40;;;;;;;3.80;1.60;;;;;;;;;;109730;273;39691;-40
2023/06/27 10:09:14;;;;;;;3.10;1.40;;;;;;;;;;109792;270;44194;-41
2023/06/27 10:11:48;;;;;;;3.20;1.40;;;;;;;;;;109793;273;43240;-39
2023/06/27 10:14:23;;;;;;;2.20;1.10;;;;;;;;;;109783;276;38565;-40
2023/06/27 10:16:57;;;;;;;3.10;1.30;;;;;;;;;;109756;276;39454;-39
2023/06/27 10:19:34;;;;;;;3.20;1.10;;;;;;;;;;109778;276;42832;-39
2023/06/27 10:22:14;;;;;;;2.80;1.10;;;;;;;;;;109107;273;891330;-40
2023/06/27 10:24:52;;;;;;;2.80;1.20;;;;;;;;;;109777;269;39898;-39
2023/06/27 10:27:27;;;;;;;2.90;1.20;;;;;;;;;;109815;273;39435;-37
2023/06/27 10:30:14;;;;;;;4.00;1.40;;;;;;;;;;109794;276;42835;-40
2023/06/27 10:32:49;;;;;;;3.20;1.30;;;;;;;;;;109784;273;42208;-37
2023/06/27 10:35:29;;;;;;;3.00;1.20;;;;;;;;;;109773;269;39928;-40
2023/06/27 10:38:18;;;;;;;3.30;1.50;;;;;;;;;;109745;269;39726;-39
2023/06/27 10:41:33;;;;;;;2.80;1.20;;;;;;;;;;109762;276;42859;-39
2023/06/27 10:44:20;;;;;;;2.50;1.10;;;;;;;;;;109774;277;42257;-39
2023/06/27 10:47:34;;;;;;;2.60;1.10;;;;;;;;;;109764;276;38753;-41
2023/06/27 10:50:22;;;;;;;2.60;1.10;;;;;;;;;;109754;269;39871;-40
2023/06/27 10:53:18;;;;;;;2.80;1.20;;;;;;;;;;109782;276;42848;-40
2023/06/27 10:55:52;;;;;;;3.20;1.20;;;;;;;;;;109725;276;42246;-39
2023/06/27 10:58:27;;;;;;;3.00;1.20;;;;;;;;;;109774;276;38703;-40
2023/06/27 11:01:04;;;;;;;2.40;1.10;;;;;;;;;;109761;276;39716;-39
2023/06/27 11:03:41;;;;;;;3.70;1.50;;;;;;;;;;109771;272;43133;-40
2023/06/27 11:06:16;;;;;;;2.90;1.00;;;;;;;;;;109786;276;42143;-39
2023/06/27 11:09:01;;;;;;;2.60;1.10;;;;;;;;;;109758;276;38791;-41
2023/06/27 11:11:35;;;;;;;3.30;1.20;;;;;;;;;;109127;275;890641;-40
2023/06/27 11:14:35;;;;;;;2.50;1.10;;;;;;;;;;109768;267;42829;-43
2023/06/27 11:17:12;;;;;;;3.00;1.20;;;;;;;;;;109752;275;43393;-41
2023/06/27 11:19:46;;;;;;;2.70;1.00;;;;;;;;;;109777;275;45957;-42
2023/06/27 11:22:20;;;;;;;3.60;1.20;;;;;;;;;;109828;271;39477;-39
2023/06/27 11:24:53;;;;;;;3.10;1.20;;;;;;;;;;109782;275;42770;-41
2023/06/27 11:27:32;;;;;;;2.70;1.10;;;;;;;;;;109768;275;42099;-40
2023/06/27 11:30:10;;;;;;;3.30;1.20;;;;;;;;;;109760;276;46013;-45
2023/06/27 11:32:46;;;;;;;2.70;1.00;;;;;;;;;;109783;267;39694;-40
2023/06/27 11:35:19;;;;;;;3.40;1.20;;;;;;;;;;109803;275;45365;-41
2023/06/27 11:37:56;;;;;;;2.60;1.10;;;;;;;;;;109779;275;42155;-40
2023/06/27 11:40:33;;;;;;;3.60;1.20;;;;;;;;;;109799;271;38577;-39
2023/06/27 11:43:10;;;;;;;2.80;1.30;;;;;;;;;;109772;267;39828;-39
2023/06/27 11:45:48;;;;;;;3.50;1.20;;;;;;;;;;109751;275;42853;-39
2023/06/27 11:48:24;;;;;;;4.30;1.70;;;;;;;;;;109756;275;42106;-38
2023/06/27 11:51:05;;;;;;;4.10;1.30;;;;;;;;;;109804;275;38737;-41
2023/06/27 11:53:45;;;;;;;3.80;1.30;;;;;;;;;;109794;271;39798;-40
2023/06/27 11:56:22;;;;;;;2.60;1.20;;;;;;;;;;109787;275;42807;-39
2023/06/27 11:59:01;;;;;;;3.90;1.30;;;;;;;;;;109752;275;42157;-42
2023/06/27 12:01:44;;;;;;;2.80;1.10;;;;;;;;;;109810;276;38506;-37
2023/06/27 12:04:18;;;;;;;4.30;1.40;;;;;;;;;;109783;271;40811;-38
2023/06/27 12:06:52;;;;;;;3.90;1.30;;;;;;;;;;109750;276;43986;-42
2023/06/27 12:09:28;;;;;;;4.00;1.30;;;;;;;;;;109741;267;42081;-40
2023/06/27 12:12:03;;;;;;;3.20;1.20;;;;;;;;;;109791;271;39831;-37
2023/06/27 12:14:38;;;;;;;4.00;1.30;;;;;;;;;;109786;276;39622;-41
2023/06/27 12:17:25;;;;;;;3.40;1.30;;;;;;;;;;109860;273;42995;-39
2023/06/27 12:20:07;;;;;;;3.50;1.30;;;;;;;;;;109823;273;42191;-42
2023/06/27 12:22:42;;;;;;;3.30;1.20;;;;;;;;;;109861;273;38760;-37
2023/06/27 12:25:17;;;;;;;3.10;1.20;;;;;;;;;;109848;273;40832;-38
2023/06/27 12:27:52;;;;;;;3.20;1.10;;;;;;;;;;109878;270;44018;-40
2023/06/27 12:30:26;;;;;;;4.20;1.40;;;;;;;;;;109685;273;195925;-40
2023/06/27 12:33:03;;;;;;;3.50;1.30;;;;;;;;;;109845;273;38746;-40
2023/06/27 12:35:37;;;;;;;3.60;1.50;;;;;;;;;;109843;273;40671;-40
2023/06/27 12:38:11;;;;;;;4.80;1.60;;;;;;;;;;109848;273;42866;-41
2023/06/27 12:40:45;;;;;;;3.80;1.30;;;;;;;;;;109817;273;43209;-38
2023/06/27 12:43:19;;;;;;;3.70;1.30;;;;;;;;;;109843;269;38741;-39
2023/06/27 12:46:06;;;;;;;4.60;1.50;;;;;;;;;;109855;273;39834;-41
2023/06/27 12:48:40;;;;;;;4.20;1.40;;;;;;;;;;109810;273;42641;-41
2023/06/27 12:51:16;;;;;;;4.80;1.50;;;;;;;;;;109425;274;488332;-38
2023/06/27 12:53:54;;;;;;;4.10;1.60;;;;;;;;;;109856;273;38743;-39
2023/06/27 12:56:29;;;;;;;4.60;1.50;;;;;;;;;;109854;270;39719;-39
2023/06/27 12:59:06;;;;;;;4.40;1.60;;;;;;;;;;109828;270;42855;-41
2023/06/27 13:01:54;;;;;;;4.00;1.40;;;;;;;;;;109744;273;42124;-42
2023/06/27 13:04:33;;;;;;;5.20;1.50;;;;;;;;;;109813;274;38732;-39
2023/06/27 13:07:07;;;;;;;4.00;1.40;;;;;;;;;;109831;273;39408;-41
2023/06/27 13:09:44;;;;;;;3.30;1.10;;;;;;;;;;109826;273;42816;-40
2023/06/27 13:12:18;;;;;;;3.70;1.30;;;;;;;;;;109815;273;42340;-39
2023/06/27 13:14:52;;;;;;;3.70;1.30;;;;;;;;;;109763;271;38739;-38
2023/06/27 13:17:28;;;;;;;3.30;1.20;;;;;;;;;;109866;273;39697;-38
2023/06/27 13:20:12;;;;;;;4.40;1.30;;;;;;;;;;109814;270;43133;-38
2023/06/27 13:22:48;;;;;;;3.90;1.30;;;;;;;;;;109874;265;42190;-39
2023/06/27 13:25:22;;;;;;;3.20;1.10;;;;;;;;;;109778;275;38861;-38
2023/06/27 13:27:58;;;;;;;3.80;1.20;;;;;;;;;;109867;273;40764;-38
2023/06/27 13:30:35;;;;;;;3.40;1.10;;;;;;;;;;109830;273;42600;-41
2023/06/27 13:33:09;;;;;;;3.60;1.20;;;;;;;;;;109861;273;41838;-39
2023/06/27 13:35:44;;;;;;;3.60;1.20;;;;;;;;;;109831;273;38893;-39
2023/06/27 13:38:18;;;;;;;3.10;1.10;;;;;;;;;;109819;273;39702;-38
2023/06/27 13:40:56;;;;;;;3.50;1.10;;;;;;;;;;109820;273;42955;-39
2023/06/27 13:43:30;;;;;;;3.90;1.20;;;;;;;;;;109831;270;41845;-40
2023/06/27 13:46:05;;;;;;;3.30;1.20;;;;;;;;;;109173;273;892218;-39
2023/06/27 13:48:42;;;;;;;3.20;1.00;;;;;;;;;;109851;273;39709;-41
2023/06/27 13:51:15;;;;;;;4.80;1.40;;;;;;;;;;109697;273;195904;-38
2023/06/27 13:53:49;;;;;;;3.20;1.10;;;;;;;;;;109836;273;43295;-41
2023/06/27 13:56:23;;;;;;;3.30;1.10;;;;;;;;;;109827;273;38532;-43
2023/06/27 13:58:57;;;;;;;3.20;1.20;;;;;;;;;;109864;273;39683;-43
2023/06/27 14:01:39;;;;;;;3.80;1.10;;;;;;;;;;109849;265;42705;-40
2023/06/27 14:04:15;;;;;;;3.20;1.10;;;;;;;;;;109837;273;41879;-39
2023/06/27 14:06:52;;;;;;;2.40;0.90;;;;;;;;;;109829;273;39896;-41
2023/06/27 14:09:26;;;;;;;2.90;1.10;;;;;;;;;;109845;273;40864;-39
2023/06/27 14:12:01;;;;;;;3.30;1.10;;;;;;;;;;109774;273;42947;-36
2023/06/27 14:14:36;;;;;;;2.90;1.00;;;;;;;;;;109832;271;42560;-38
2023/06/27 14:17:15;;;;;;;3.40;1.10;;;;;;;;;;109861;273;38892;-37
2023/06/27 14:19:49;;;;;;;3.50;1.00;;;;;;;;;;109863;269;39696;-38
2023/06/27 14:22:23;;;;;;;3.70;1.10;;;;;;;;;;109812;273;42967;-40
2023/06/27 14:24:57;;;;;;;2.90;1.20;;;;;;;;;;109859;273;43215;-37
2023/06/27 14:27:31;;;;;;;2.70;1.10;;;;;;;;;;109832;265;39968;-41
2023/06/27 14:30:11;;;;;;;2.70;1.00;;;;;;;;;;109827;265;41001;-37
2023/06/27 14:32:45;;;;;;;3.00;1.00;;;;;;;;;;109837;273;42846;-37
2023/06/27 14:35:23;;;;;;;3.10;1.00;;;;;;;;;;109882;269;42095;-42
2023/06/27 14:37:57;;;;;;;3.20;1.10;;;;;;;;;;109841;270;38895;-37
2023/06/27 14:40:31;;;;;;;2.40;1.00;;;;;;;;;;109856;273;39710;-42
2023/06/27 14:43:07;;;;;;;2.70;1.00;;;;;;;;;;109827;273;43935;-37
2023/06/27 14:45:43;;;;;;;2.50;0.90;;;;;;;;;;109821;273;42907;-38
2023/06/27 14:48:17;;;;;;;2.50;1.00;;;;;;;;;;109812;274;38823;-38
2023/06/27 14:50:51;;;;;;;3.30;1.00;;;;;;;;;;109809;271;41072;-44
2023/06/27 14:53:25;;;;;;;3.10;1.00;;;;;;;;;;109821;273;43932;-40
2023/06/27 14:56:00;;;;;;;2.60;1.10;;;;;;;;;;109831;273;41857;-38
2023/06/27 14:58:38;;;;;;;2.50;1.00;;;;;;;;;;109836;273;38804;-39
2023/06/27 15:01:12;;;;;;;2.80;1.10;;;;;;;;;;109804;274;39702;-38
2023/06/27 15:03:53;;;;;;;2.40;1.00;;;;;;;;;;109827;273;42995;-38
2023/06/27 15:06:42;;;;;;;3.00;1.10;;;;;;;;;;109891;271;42332;-38
2023/06/27 15:09:22;;;;;;;3.50;1.20;;;;;;;;;;109865;271;38769;-39
2023/06/27 15:12:00;;;;;;;2.00;0.90;;;;;;;;;;109854;273;41248;-38
2023/06/27 15:14:38;;;;;;;2.80;0.90;;;;;;;;;;109768;269;49722;-39
2023/06/27 15:17:21;;;;;;;3.50;1.10;;;;;;;;;;109863;273;42360;-38
2023/06/27 15:19:55;;;;;;;3.70;1.30;;;;;;;;;;109817;273;38814;-38
2023/06/27 15:22:32;;;;;;;3.40;1.20;;;;;;;;;;109852;271;39978;-39
2023/06/27 15:25:12;;;;;;;3.20;1.10;;;;;;;;;;109795;271;44297;-40
2023/06/27 15:27:50;;;;;;;2.70;1.00;;;;;;;;;;109842;269;42470;-39
2023/06/27 15:30:26;;;;;;;3.20;1.20;;;;;;;;;;109858;269;38524;-39
2023/06/27 15:33:00;;;;;;;3.10;1.20;;;;;;;;;;109871;273;41019;-39
2023/06/27 15:35:38;;;;;;;3.40;1.20;;;;;;;;;;109875;270;44027;-39
2023/06/27 15:38:16;;;;;;;2.90;1.10;;;;;;;;;;109852;270;43495;-39